LICA Airport Information

Runway Information
Runway 10 Length 9898 ft width 148 ft Elevation 20 ft Threshold 348 ft Heading 99
Runway 28 Length 9898 ft Width 148 ft Elevation 39 ft Threshold 351 ft Heading 279
Airport Frequencies
Type APP Name APP Frequency 118.8 MHZ
Type TWR Name TWR Frequency 119.7 MHZ
Airport Navaids
Type VOR-DME Name Lamezia Terme Frequency 112500 KHZ
Airport Weather Information & NOTAM
ADDS - METARS form results

(2231 UTC 04 December 2022)
Data provider http://aviationweather.gov/metar/data/
 
METAR text: LICA 042220Z AUTO 06008KT 9999 NCD 12/10 Q1020
Conditions at: LICA (LAMEZIA TERME , IT) observed 2220 UTC 04 December 2022
Temperature: 12.0°C (54°F)
Dewpoint: 10.0°C (50°F) [RH = 88%]
Pressure (altimeter): 30.12 inches Hg (1020.0 mb)
Winds: from the ENE (60 degrees) at 9 MPH (8 knots; 4.1 m/s)
Visibility: 6 or more miles (10+ km)
Ceiling: at least 12,000 feet AGL
Clouds: sky clear below 12,000 feet AGL
Weather: no significant weather observed at this time

METAR text: LICA 042150Z AUTO 04007KT 9999 NCD 13/11 Q1020
Conditions at: LICA (LAMEZIA TERME , IT) observed 2150 UTC 04 December 2022
Temperature: 13.0°C (55°F)
Dewpoint: 11.0°C (52°F) [RH = 88%]
Pressure (altimeter): 30.12 inches Hg (1020.0 mb)
Winds: from the NE (40 degrees) at 8 MPH (7 knots; 3.6 m/s)
Visibility: 6 or more miles (10+ km)
Ceiling: at least 12,000 feet AGL
Clouds: sky clear below 12,000 feet AGL
Weather: no significant weather observed at this time

Forecast for: LICA (LAMEZIA TERME , IT)
Text: TAF LICA 041700Z 0418/0518 07010KT 9999 FEW030
Forecast period: 1800 UTC 04 December 2022 to 1800 UTC 05 December 2022
Forecast type: FROM: standard forecast or significant change
Winds: from the ENE (70 degrees) at 12 MPH (10 knots; 5.1 m/s)
Visibility: 6 or more miles (10+ km)
Ceiling: at least 12,000 feet AGL
Clouds: few clouds at 3000 feet AGL
Weather: no significant weather forecast for this period